Time;durP1;ratioP1;P1;durP2;ratioP2;P2;SDS_P1;SDS_P2;PMS_P1;PMS_P2;Temp;Humidity;BMP_temperature;BMP_pressure;BME280_temperature;BME280_humidity;BME280_pressure;Samples;Min_cycle;Max_cycle;Signal;HPM_P1;HPM_P2
2022/03/18 00:02:22;;;;;;;27.30;14.00;;;;;;;9.46;57.54;99586.00;5139949;28;20070;-94
2022/03/18 00:04:49;;;;;;;27.50;14.32;;;;;;;9.34;57.91;99567.53;5138961;27;20047;-94
2022/03/18 00:07:15;;;;;;;23.25;13.45;;;;;;;9.33;58.33;99576.41;5139541;27;20050;-96
2022/03/18 00:09:41;;;;;;;26.45;14.15;;;;;;;9.30;58.06;99575.53;5120578;27;20043;-95
2022/03/18 00:12:10;;;;;;;30.65;16.00;;;;;;;9.30;58.19;99583.50;5119299;28;20521;-94
2022/03/18 00:14:39;;;;;;;27.03;14.00;;;;;;;9.29;58.37;99587.06;5119915;28;20044;-95
2022/03/18 00:17:05;;;;;;;28.25;14.23;;;;;;;9.22;58.49;99575.63;5118892;28;20489;-95
2022/03/18 00:19:31;;;;;;;27.85;14.88;;;;;;;9.26;58.83;99603.91;5117903;28;20079;-96
2022/03/18 00:22:01;;;;;;;25.52;15.05;;;;;;;9.19;58.84;99589.78;5116970;28;20401;-96
2022/03/18 00:24:27;;;;;;;38.05;15.95;;;;;;;9.17;59.03;99596.88;5117390;28;20078;-94
2022/03/18 00:26:53;;;;;;;29.90;14.55;;;;;;;9.23;59.18;99609.22;5115817;28;20520;-95
2022/03/18 00:29:20;;;;;;;30.85;17.92;;;;;;;9.10;59.33;99589.84;5116447;28;20040;-93
2022/03/18 00:31:46;;;;;;;30.13;16.80;;;;;;;9.14;59.33;99607.50;5116105;28;20052;-95
2022/03/18 00:34:12;;;;;;;25.60;14.68;;;;;;;9.05;59.68;99587.25;5116714;28;20439;-96
2022/03/18 00:36:38;;;;;;;30.15;15.95;;;;;;;9.03;59.65;99590.81;5116270;28;20051;-94
2022/03/18 00:39:05;;;;;;;23.27;13.43;;;;;;;9.08;59.41;99604.91;5116784;28;20160;-92
2022/03/18 00:41:31;;;;;;;31.13;15.90;;;;;;;9.07;59.71;99608.47;5116991;28;20048;-94
2022/03/18 00:43:57;;;;;;;29.83;14.60;;;;;;;8.99;60.08;99605.84;5115873;28;20051;-96
2022/03/18 00:46:25;;;;;;;27.63;14.20;;;;;;;8.95;60.13;99613.84;5115292;28;20051;-94
2022/03/18 00:54:53;;;;;;;24.85;14.43;;;;;;;8.88;60.40;99617.44;5098680;27;20378;-96
2022/03/18 00:57:19;;;;;;;30.13;14.98;;;;;;;8.86;60.68;99624.53;5097975;28;20052;-94
2022/03/18 00:59:45;;;;;;;31.08;16.27;;;;;;;8.82;60.76;99621.88;5096117;28;20556;-96
2022/03/18 01:02:11;;;;;;;31.83;15.70;;;;;;;8.79;60.88;99615.72;5096534;28;20060;-95
2022/03/18 01:04:37;;;;;;;31.00;16.30;;;;;;;8.78;61.53;99629.88;5097085;28;20497;-96
2022/03/18 01:07:03;;;;;;;31.27;15.98;;;;;;;8.78;61.50;99637.81;5098062;28;20055;-94
2022/03/18 01:09:29;;;;;;;31.15;16.17;;;;;;;8.81;61.52;99643.13;5096562;28;20059;-95
2022/03/18 01:11:56;;;;;;;30.48;16.67;;;;;;;8.68;62.01;99626.41;5096816;28;20448;-95
2022/03/18 01:14:23;;;;;;;34.47;19.33;;;;;;;8.79;61.74;99634.28;5090497;28;20045;-95
2022/03/18 01:16:49;;;;;;;31.23;15.10;;;;;;;8.71;61.81;99626.38;5087979;28;20040;-96
2022/03/18 01:19:15;;;;;;;33.58;16.35;;;;;;;8.75;62.37;99637.84;5097196;28;20103;-95
2022/03/18 01:21:43;;;;;;;30.20;16.67;;;;;;;8.61;62.67;99622.91;5096437;28;20047;-93
2022/03/18 01:24:09;;;;;;;29.05;16.77;;;;;;;8.60;62.75;99617.59;5097063;28;20044;-95
2022/03/18 01:26:34;;;;;;;30.13;17.38;;;;;;;8.63;62.86;99622.88;5095152;28;20429;-94
2022/03/18 01:29:02;;;;;;;29.48;15.02;;;;;;;8.63;62.82;99628.16;5096917;28;20040;-96
2022/03/18 01:31:28;;;;;;;30.90;15.50;;;;;;;8.61;63.17;99622.03;5096095;28;20044;-96
2022/03/18 01:33:54;;;;;;;32.65;17.33;;;;;;;8.72;63.31;99641.41;5095519;28;20055;-93
2022/03/18 01:36:20;;;;;;;33.50;17.50;;;;;;;8.63;63.25;99645.00;5095215;28;20044;-94
2022/03/18 01:38:46;;;;;;;28.17;15.95;;;;;;;8.62;63.74;99637.91;5090762;28;20044;-95
2022/03/18 01:41:12;;;;;;;29.25;16.02;;;;;;;8.68;64.10;99641.44;5075172;28;20049;-96
2022/03/18 01:43:41;;;;;;;34.15;17.88;;;;;;;8.49;64.45;99627.38;5112999;28;20078;-96
2022/03/18 01:46:08;;;;;;;33.03;17.75;;;;;;;8.48;64.68;99636.22;5116747;28;20048;-94
2022/03/18 01:48:34;;;;;;;31.27;15.18;;;;;;;8.46;64.67;99627.38;5115940;28;20055;-95
2022/03/18 01:51:01;;;;;;;35.95;16.20;;;;;;;8.44;64.70;99622.09;5116989;28;20517;-94
2022/03/18 01:53:29;;;;;;;33.70;16.25;;;;;;;8.42;64.73;99624.75;5115682;28;20044;-95
2022/03/18 01:55:56;;;;;;;33.00;19.05;;;;;;;8.43;65.04;99617.69;5115440;28;20517;-95
2022/03/18 01:58:23;;;;;;;29.48;16.52;;;;;;;8.43;65.10;99620.34;5097545;28;20070;-96
2022/03/18 02:00:49;;;;;;;34.20;17.10;;;;;;;8.43;65.19;99615.03;5095085;28;20083;-92
2022/03/18 02:03:17;;;;;;;31.70;16.48;;;;;;;8.42;65.33;99624.75;5096214;28;20044;-94
2022/03/18 02:05:45;;;;;;;31.77;17.30;;;;;;;8.42;65.15;99613.28;5084419;28;20104;-96
2022/03/18 02:08:12;;;;;;;34.80;17.20;;;;;;;8.67;65.23;99644.97;5084141;28;20105;-95
2022/03/18 02:10:38;;;;;;;31.90;16.58;;;;;;;8.53;65.13;99626.47;5083615;28;20044;-94
2022/03/18 02:13:10;;;;;;;36.20;17.33;;;;;;;8.57;65.52;99636.19;5085422;28;20045;-95
2022/03/18 02:15:35;;;;;;;33.33;19.27;;;;;;;8.43;65.54;99620.34;5084073;28;20079;-92
2022/03/18 02:18:02;;;;;;;33.28;17.80;;;;;;;8.48;65.67;99625.59;5084687;28;20037;-93
2022/03/18 02:20:29;;;;;;;30.08;15.85;;;;;;;8.52;66.19;99637.97;5084358;28;20075;-94
2022/03/18 02:22:56;;;;;;;34.45;17.90;;;;;;;8.40;65.75;99615.03;5083374;28;20098;-92
2022/03/18 02:25:25;;;;;;;30.95;16.42;;;;;;;8.48;66.24;99622.94;5084466;28;20030;-94
2022/03/18 02:27:55;;;;;;;34.78;18.63;;;;;;;8.34;66.12;99597.38;5085259;28;20371;-95
2022/03/18 02:30:21;;;;;;;32.17;18.73;;;;;;;8.49;65.79;99619.44;5084500;28;20040;-95
2022/03/18 02:32:48;;;;;;;31.58;16.90;;;;;;;8.37;65.99;99610.63;5084577;28;20041;-96
2022/03/18 02:35:14;;;;;;;29.75;15.52;;;;;;;8.31;66.39;99615.06;5085253;28;20036;-96
2022/03/18 02:37:40;;;;;;;35.78;17.00;;;;;;;8.42;65.76;99623.88;5084397;28;20048;-93
2022/03/18 02:40:09;;;;;;;28.08;14.65;;;;;;;8.54;66.22;99638.84;5086832;28;20040;-95
2022/03/18 02:42:35;;;;;;;30.15;16.23;;;;;;;8.51;66.08;99645.03;5086297;28;20421;-94
2022/03/18 02:45:02;;;;;;;32.67;15.85;;;;;;;8.33;65.89;99613.31;5085851;28;20049;-96
2022/03/18 02:47:28;;;;;;;28.80;16.95;;;;;;;8.41;65.27;99617.72;5084090;28;20037;-96
2022/03/18 02:49:54;;;;;;;30.27;14.70;;;;;;;8.53;65.36;99639.75;5084000;28;20045;-95
2022/03/18 02:52:20;;;;;;;30.02;17.20;;;;;;;8.45;64.66;99612.38;5082327;28;20071;-95
2022/03/18 02:54:46;;;;;;;27.20;16.02;;;;;;;8.59;64.59;99631.75;5081153;28;20056;-95
2022/03/18 02:57:14;;;;;;;29.83;15.68;;;;;;;8.52;64.19;99612.34;5084003;28;20067;-96
2022/03/18 02:59:40;;;;;;;29.77;16.42;;;;;;;8.47;64.33;99603.53;5083857;28;20049;-96
2022/03/18 03:02:07;;;;;;;30.00;16.45;;;;;;;8.45;64.70;99602.66;5083702;28;20045;-95
2022/03/18 03:04:32;;;;;;;31.30;16.40;;;;;;;8.42;65.01;99611.50;5082574;28;20045;-94
2022/03/18 03:10:02;;;;;;;29.83;15.10;;;;;;;8.49;64.51;99615.00;5122598;27;20377;-93
2022/03/18 03:12:28;;;;;;;44.17;16.52;;;;;;;8.53;64.45;99626.47;5120755;28;20094;-95
2022/03/18 03:14:54;;;;;;;30.23;16.95;;;;;;;8.60;64.55;99636.16;5120346;28;20054;-92
2022/03/18 03:17:20;;;;;;;30.15;15.65;;;;;;;8.45;64.59;99618.56;5120937;28;20047;-95
2022/03/18 03:19:46;;;;;;;30.02;15.18;;;;;;;8.44;64.97;99616.81;5121387;28;20039;-94
2022/03/18 03:22:12;;;;;;;31.95;15.57;;;;;;;8.35;65.35;99609.75;5120789;28;20504;-95
2022/03/18 03:24:39;;;;;;;30.63;17.80;;;;;;;8.32;65.58;99612.41;5120437;28;20079;-94
2022/03/18 03:27:06;;;;;;;28.80;15.27;;;;;;;8.37;65.23;99626.53;5120667;28;20047;-95
2022/03/18 03:29:32;;;;;;;29.77;16.33;;;;;;;8.39;65.08;99623.84;5118295;28;20055;-95
2022/03/18 03:31:58;;;;;;;27.95;15.82;;;;;;;8.43;64.78;99628.28;5119366;28;20048;-96
2022/03/18 03:34:24;;;;;;;30.65;18.10;;;;;;;8.38;65.14;99622.97;5120341;28;20055;-95
2022/03/18 03:36:50;;;;;;;31.58;17.80;;;;;;;8.55;64.80;99640.63;5119925;28;20043;-95
2022/03/18 03:39:16;;;;;;;28.67;17.02;;;;;;;8.49;65.11;99641.50;5118846;28;20177;-95
2022/03/18 03:41:42;;;;;;;28.95;14.88;;;;;;;8.43;64.38;99630.94;5119037;28;20048;-95
2022/03/18 03:44:09;;;;;;;31.10;15.65;;;;;;;8.66;63.97;99646.75;5118015;28;20050;-96
2022/03/18 03:46:35;;;;;;;30.38;17.65;;;;;;;8.49;64.42;99624.72;5119188;28;20047;-95
2022/03/18 03:49:01;;;;;;;26.63;14.75;;;;;;;8.54;64.13;99617.63;5116338;28;20074;-95
2022/03/18 03:51:27;;;;;;;29.35;16.23;;;;;;;8.48;64.03;99617.66;5118408;28;20043;-91
2022/03/18 03:53:53;;;;;;;26.00;14.65;;;;;;;8.49;64.04;99617.66;5117442;28;20047;-95
2022/03/18 03:56:19;;;;;;;27.95;16.77;;;;;;;8.52;63.92;99630.00;5117341;28;20477;-95
2022/03/18 03:58:45;;;;;;;31.10;16.08;;;;;;;8.56;63.74;99634.41;5120267;28;20047;-96
2022/03/18 04:01:13;;;;;;;28.98;16.27;;;;;;;8.53;63.97;99637.97;5117511;28;20085;-93
2022/03/18 04:03:39;;;;;;;31.50;17.23;;;;;;;8.59;63.89;99650.31;5118034;28;20075;-93
2022/03/18 04:06:05;;;;;;;29.17;17.08;;;;;;;8.66;63.80;99645.88;5117765;28;20040;-94
2022/03/18 04:08:30;;;;;;;30.13;16.08;;;;;;;8.62;63.33;99640.56;5116553;28;20039;-94
2022/03/18 04:10:57;;;;;;;27.90;15.75;;;;;;;8.80;63.12;99657.25;5115483;28;20051;-94
2022/03/18 04:13:23;;;;;;;32.30;17.38;;;;;;;8.70;63.16;99640.53;5119390;28;20040;-96
2022/03/18 04:15:49;;;;;;;30.77;17.92;;;;;;;8.74;63.07;99657.28;5118347;28;20123;-93
2022/03/18 04:18:16;;;;;;;28.55;17.63;;;;;;;8.65;63.05;99637.00;5119572;28;20086;-93
2022/03/18 04:20:43;;;;;;;29.70;16.52;;;;;;;8.76;62.87;99658.16;5108008;28;20051;-94
2022/03/18 04:23:09;;;;;;;30.88;16.85;;;;;;;8.66;62.91;99641.44;5104389;28;20119;-96
2022/03/18 04:25:35;;;;;;;32.65;19.98;;;;;;;8.69;62.76;99644.06;5105335;28;20147;-94
2022/03/18 04:28:02;;;;;;;34.30;17.08;;;;;;;8.72;62.50;99652.00;5103184;28;20127;-96
2022/03/18 04:30:28;;;;;;;29.55;17.25;;;;;;;8.83;62.54;99666.09;5104056;28;20528;-95
2022/03/18 04:32:56;;;;;;;28.80;15.73;;;;;;;8.73;62.66;99655.53;5106342;28;20444;-96
2022/03/18 04:35:24;;;;;;;31.90;19.10;;;;;;;8.72;63.14;99667.94;5104510;28;20036;-95
2022/03/18 04:37:51;;;;;;;28.60;16.67;;;;;;;8.67;62.88;99659.09;5102804;28;20070;-95
2022/03/18 04:40:17;;;;;;;26.27;15.68;;;;;;;8.70;62.59;99664.41;5103166;28;20088;-95
2022/03/18 04:42:44;;;;;;;28.17;15.85;;;;;;;8.66;62.77;99662.66;5102643;28;20043;-95
2022/03/18 04:45:11;;;;;;;27.80;15.15;;;;;;;8.70;62.63;99668.81;5102600;28;20112;-95
2022/03/18 04:47:37;;;;;;;27.92;15.30;;;;;;;8.71;62.38;99674.09;5101217;28;20493;-95
2022/03/18 04:50:05;;;;;;;31.10;17.95;;;;;;;8.89;62.23;99704.97;5102348;28;20072;-96
2022/03/18 04:52:32;;;;;;;26.75;15.30;;;;;;;8.98;61.71;99701.38;5102881;28;20040;-93
2022/03/18 04:54:58;;;;;;;29.52;17.30;;;;;;;8.92;61.72;99689.03;5100873;28;20071;-93
2022/03/18 04:57:25;;;;;;;24.98;14.52;;;;;;;8.92;61.63;99704.94;5101963;28;20137;-95
2022/03/18 04:59:52;;;;;;;26.77;15.25;;;;;;;8.80;61.39;99682.03;5103188;28;20048;-96
2022/03/18 05:02:20;;;;;;;27.70;15.02;;;;;;;8.85;61.88;99684.66;5103486;28;20128;-96
2022/03/18 05:04:48;;;;;;;29.27;17.55;;;;;;;8.82;61.30;99674.03;5102263;28;20056;-95
2022/03/18 05:07:15;;;;;;;30.75;19.67;;;;;;;8.87;61.16;99687.28;5102556;28;20040;-93
2022/03/18 05:09:44;;;;;;;26.10;14.98;;;;;;;8.88;61.22;99692.59;5101380;28;20059;-95
2022/03/18 05:12:11;;;;;;;;;;;;;;;9.10;61.08;99717.22;5102738;28;20047;-94
2022/03/18 05:14:38;;;;;;;28.02;16.30;;;;;;;8.95;61.40;99704.03;5101913;28;19928;-95
2022/03/18 05:17:04;;;;;;;26.60;14.70;;;;;;;8.95;60.78;99688.13;5102365;28;20075;-94
2022/03/18 05:19:30;;;;;;;25.80;14.50;;;;;;;8.93;60.71;99696.06;5102784;28;20460;-95
2022/03/18 05:21:56;;;;;;;26.70;16.65;;;;;;;8.90;60.88;99690.81;5102738;28;20086;-96
2022/03/18 05:24:23;;;;;;;30.58;18.85;;;;;;;9.05;60.99;99711.06;5102004;28;20055;-95
2022/03/18 05:26:53;;;;;;;30.80;17.02;;;;;;;9.01;61.00;99719.94;5103071;28;20048;-94
2022/03/18 05:29:19;;;;;;;33.58;17.58;;;;;;;8.92;61.33;99704.94;5103717;28;20056;-95
2022/03/18 05:31:46;;;;;;;29.70;16.33;;;;;;;8.93;61.11;99701.38;5101876;28;20052;-95
2022/03/18 05:34:13;;;;;;;28.50;16.02;;;;;;;8.93;61.33;99706.69;5101508;28;20043;-94
2022/03/18 05:36:39;;;;;;;30.20;16.05;;;;;;;8.96;61.01;99697.84;5101556;28;20067;-95
2022/03/18 05:39:05;;;;;;;28.73;16.75;;;;;;;9.05;60.84;99706.63;5102007;28;20040;-95
2022/03/18 05:41:31;;;;;;;30.40;15.02;;;;;;;9.09;60.94;99723.44;5101217;28;20048;-95
2022/03/18 05:43:58;;;;;;;30.92;15.88;;;;;;;8.97;61.12;99703.13;5101871;28;20032;-94
2022/03/18 05:46:25;;;;;;;26.88;16.13;;;;;;;9.13;60.92;99730.47;5101786;28;20044;-96
2022/03/18 05:48:51;;;;;;;31.02;16.25;;;;;;;9.07;60.90;99717.25;5101002;28;20044;-96
2022/03/18 05:51:17;;;;;;;27.83;16.05;;;;;;;9.07;61.05;99705.75;5101407;28;20044;-95
2022/03/18 05:53:43;;;;;;;29.35;16.75;;;;;;;9.23;61.13;99733.94;5101078;28;20047;-95
2022/03/18 05:59:11;;;;;;;29.42;16.35;;;;;;;9.16;60.65;99717.19;5036627;27;20735;-94
2022/03/18 06:01:38;;;;;;;29.67;16.33;;;;;;;9.19;60.68;99713.63;5036870;28;20387;-93
2022/03/18 06:04:04;;;;;;;31.02;15.88;;;;;;;9.13;61.33;99719.88;5038446;28;20067;-95
2022/03/18 06:06:30;;;;;;;31.95;15.82;;;;;;;9.26;60.76;99720.69;5034862;28;20503;-93
2022/03/18 06:11:57;;;;;;;25.63;15.50;;;;;;;9.28;60.84;99718.00;5098967;27;20389;-95
2022/03/18 06:14:25;;;;;;;29.42;14.32;;;;;;;9.34;60.77;99723.25;5098320;28;20080;-95
2022/03/18 06:16:53;;;;;;;28.83;16.58;;;;;;;9.29;61.06;99718.00;5099641;28;20067;-93
2022/03/18 06:19:21;;;;;;;29.60;16.10;;;;;;;9.31;61.45;99732.13;5100043;28;20079;-95
2022/03/18 06:21:47;;;;;;;28.42;15.48;;;;;;;9.31;60.77;99723.28;5102182;28;20040;-96
2022/03/18 06:24:14;;;;;;;28.42;15.45;;;;;;;9.41;61.08;99757.72;5102484;28;20086;-95
2022/03/18 06:26:40;;;;;;;28.92;15.43;;;;;;;9.36;60.79;99726.78;5103930;28;20044;-93
2022/03/18 06:29:08;;;;;;;28.63;15.63;;;;;;;9.38;61.27;99744.47;5103870;28;20044;-94
2022/03/18 06:31:39;;;;;;;30.67;16.38;;;;;;;9.44;61.54;99746.22;5101699;28;20032;-93
2022/03/18 06:34:05;;;;;;;30.63;16.67;;;;;;;9.32;60.60;99720.59;5100095;28;20055;-95
2022/03/18 06:36:31;;;;;;;28.55;16.02;;;;;;;9.40;61.04;99728.53;5098105;28;20052;-96
2022/03/18 06:38:58;;;;;;;30.05;15.88;;;;;;;9.57;60.86;99731.06;5098712;28;20071;-94
2022/03/18 06:41:25;;;;;;;28.27;15.25;;;;;;;9.55;60.86;99741.69;5100249;28;20520;-95
2022/03/18 06:43:51;;;;;;;29.75;15.13;;;;;;;9.65;60.12;99722.16;5100172;28;20052;-96
2022/03/18 06:46:20;;;;;;;26.48;14.98;;;;;;;9.71;60.08;99729.16;5102899;28;20044;-95
2022/03/18 06:48:46;;;;;;;26.88;14.50;;;;;;;9.84;58.89;99725.50;5102029;28;20062;-96
2022/03/18 06:51:12;;;;;;;25.70;14.55;;;;;;;9.78;59.09;99727.34;5099585;28;20033;-95
2022/03/18 06:53:38;;;;;;;35.05;17.52;;;;;;;10.08;59.12;99756.31;5100960;28;20111;-94
2022/03/18 06:56:04;;;;;;;35.67;19.85;;;;;;;9.72;59.93;99732.72;5099972;28;20076;-94
2022/03/18 06:58:30;;;;;;;29.48;15.98;;;;;;;9.88;60.63;99737.88;5101617;28;20044;-95
2022/03/18 07:00:57;;;;;;;25.63;15.10;;;;;;;9.89;59.43;99744.09;5098244;28;20037;-96
2022/03/18 07:03:25;;;;;;;27.08;15.43;;;;;;;9.82;60.01;99739.72;5098713;28;20032;-96
2022/03/18 07:05:52;;;;;;;26.85;14.45;;;;;;;10.02;59.64;99747.53;5097061;28;20044;-94
2022/03/18 07:08:18;;;;;;;26.30;15.55;;;;;;;10.00;58.83;99744.88;5097580;28;20048;-93
2022/03/18 07:10:44;;;;;;;29.77;15.63;;;;;;;10.12;58.93;99758.94;5097624;28;20075;-96
2022/03/18 07:13:10;;;;;;;27.15;14.60;;;;;;;10.34;57.40;99749.88;5098727;28;20049;-96
2022/03/18 07:15:39;;;;;;;32.70;16.75;;;;;;;10.49;56.97;99756.81;5099774;28;20043;-96
2022/03/18 07:18:06;;;;;;;27.63;14.85;;;;;;;10.60;57.38;99759.34;5100968;28;20052;-96
2022/03/18 07:20:37;;;;;;;25.95;13.90;;;;;;;10.63;57.07;99756.69;5101881;28;20088;-96
2022/03/18 07:23:16;;;;;;;25.25;14.30;;;;;;;10.78;56.53;99782.19;5087338;28;20044;-96
2022/03/18 07:25:44;;;;;;;28.38;15.00;;;;;;;10.59;56.53;99760.25;5085110;28;20436;-96
2022/03/18 07:28:12;;;;;;;25.00;14.33;;;;;;;10.53;56.48;99763.88;5084268;28;20084;-95
2022/03/18 07:30:40;;;;;;;26.13;15.70;;;;;;;10.61;56.13;99753.16;5084706;28;20277;-95
2022/03/18 07:33:10;;;;;;;24.50;13.05;;;;;;;10.72;55.22;99761.00;5082136;28;20052;-96
2022/03/18 07:35:38;;;;;;;25.60;14.15;;;;;;;10.97;56.59;99791.72;5084205;28;20044;-96
2022/03/18 07:38:08;;;;;;;25.00;13.65;;;;;;;11.09;55.19;99775.59;5084426;28;20041;-95
2022/03/18 07:40:35;;;;;;;24.73;14.18;;;;;;;11.14;53.99;99777.31;5083536;28;20040;-96
2022/03/18 07:43:01;;;;;;;32.15;18.48;;;;;;;10.95;54.63;99785.56;5081306;28;20059;-96
2022/03/18 07:45:29;;;;;;;25.88;13.68;;;;;;;11.18;54.20;99769.28;5083697;28;20048;-96
2022/03/18 07:47:56;;;;;;;24.27;13.40;;;;;;;11.28;54.04;99791.34;5085732;28;20044;-96
2022/03/18 07:50:23;;;;;;;23.83;14.27;;;;;;;11.25;53.64;99781.59;5083552;28;20494;-96
2022/03/18 07:52:52;;;;;;;24.48;12.48;;;;;;;11.67;52.04;99805.00;5081561;28;20123;-96
2022/03/18 07:55:19;;;;;;;24.20;13.57;;;;;;;11.51;52.80;99807.00;5079524;28;20198;-95
2022/03/18 07:57:46;;;;;;;25.42;13.48;;;;;;;11.48;53.20;99783.06;5077906;28;20056;-95
2022/03/18 08:00:14;;;;;;;23.20;12.77;;;;;;;11.57;51.68;99777.59;5080435;28;20037;-94
2022/03/18 08:02:40;;;;;;;28.00;14.02;;;;;;;11.55;51.55;99781.19;5079594;28;20052;-96
2022/03/18 08:05:07;;;;;;;23.17;13.57;;;;;;;11.74;51.20;99830.66;5081468;28;20454;-95
2022/03/18 08:07:34;;;;;;;22.73;12.38;;;;;;;11.77;49.54;99811.06;5079834;28;20051;-92
2022/03/18 08:10:01;;;;;;;23.15;12.95;;;;;;;11.49;49.08;99798.13;5079325;28;20055;-94
2022/03/18 08:12:29;;;;;;;21.00;12.10;;;;;;;11.82;48.61;99815.44;5081079;28;20043;-95
2022/03/18 08:14:55;;;;;;;22.88;13.15;;;;;;;11.84;48.34;99804.72;5080051;28;20111;-93
2022/03/18 08:17:21;;;;;;;26.40;14.00;;;;;;;11.70;48.07;99783.63;5078806;28;20063;-93
2022/03/18 08:19:47;;;;;;;23.27;12.38;;;;;;;11.97;47.28;99793.03;5078996;28;20040;-94
2022/03/18 08:22:12;;;;;;;23.17;12.93;;;;;;;11.83;47.20;99790.53;5079293;28;20044;-96
2022/03/18 08:24:38;;;;;;;22.67;12.38;;;;;;;12.07;47.14;99791.94;5078644;28;20052;-96
2022/03/18 08:27:06;;;;;;;19.33;12.18;;;;;;;12.27;46.50;99801.38;5079189;28;20053;-95
2022/03/18 08:29:32;;;;;;;22.52;11.85;;;;;;;12.23;46.16;99775.66;5079841;28;20045;-96
2022/03/18 08:32:01;;;;;;;19.83;11.52;;;;;;;12.47;45.90;99785.91;5078369;28;20040;-96
2022/03/18 08:34:27;;;;;;;22.33;11.55;;;;;;;12.56;45.05;99779.53;5077574;28;20047;-94
2022/03/18 08:36:52;;;;;;;21.52;12.48;;;;;;;12.81;45.70;99787.91;5081628;28;20067;-95
2022/03/18 08:39:18;;;;;;;26.42;11.98;;;;;;;12.93;45.46;99787.69;5079145;28;20036;-94
2022/03/18 08:41:44;;;;;;;23.55;12.13;;;;;;;13.16;44.94;99799.66;5079793;28;20043;-95
2022/03/18 08:44:12;;;;;;;20.30;11.85;;;;;;;13.07;44.48;99781.19;5079180;28;20064;-95
2022/03/18 08:46:38;;;;;;;17.92;11.10;;;;;;;12.97;44.09;99803.63;5078307;28;20512;-92
2022/03/18 08:49:04;;;;;;;21.63;12.32;;;;;;;12.52;45.80;99820.50;5078932;28;20072;-94
2022/03/18 08:51:29;;;;;;;21.52;12.38;;;;;;;12.78;45.13;99796.00;5080632;28;20136;-95
2022/03/18 08:53:55;;;;;;;21.88;12.10;;;;;;;12.77;44.94;99794.22;5078835;28;20051;-95
2022/03/18 08:56:21;;;;;;;23.25;12.23;;;;;;;12.87;44.55;99814.50;5078255;28;20087;-95
2022/03/18 08:58:49;;;;;;;19.33;11.85;;;;;;;12.34;45.94;99800.41;5078281;28;20045;-94
2022/03/18 09:01:16;;;;;;;22.75;12.43;;;;;;;12.51;46.00;99808.06;5078199;28;20041;-94
2022/03/18 09:03:42;;;;;;;24.85;12.50;;;;;;;12.76;46.27;99826.31;5076721;28;20067;-94
2022/03/18 09:06:08;;;;;;;22.88;11.90;;;;;;;12.94;45.44;99805.44;5076759;28;20076;-94
2022/03/18 09:08:34;;;;;;;22.55;12.32;;;;;;;12.79;43.47;99797.75;5077049;28;20044;-94
2022/03/18 09:11:00;;;;;;;17.92;11.43;;;;;;;12.79;43.71;99805.75;5076255;28;20106;-92
2022/03/18 09:13:26;;;;;;;23.77;12.07;;;;;;;12.97;44.13;99811.63;5076943;28;20049;-94
2022/03/18 09:15:52;;;;;;;21.60;12.15;;;;;;;13.00;43.54;99804.47;5077505;28;20071;-94
2022/03/18 09:18:21;;;;;;;20.00;11.50;;;;;;;13.17;42.88;99817.47;5077278;28;20041;-96
2022/03/18 09:20:47;;;;;;;24.92;12.43;;;;;;;13.34;43.20;99798.44;5076925;28;20051;-95
2022/03/18 09:23:14;;;;;;;23.27;12.50;;;;;;;13.56;44.10;99820.22;5076955;28;20044;-94
2022/03/18 09:25:40;;;;;;;23.73;12.63;;;;;;;13.70;43.87;99827.91;5076971;28;20502;-94
2022/03/18 09:28:06;;;;;;;20.70;12.45;;;;;;;13.59;43.59;99833.50;5077480;28;20045;-95
2022/03/18 09:30:31;;;;;;;23.15;13.60;;;;;;;13.39;43.23;99815.25;5076811;28;20060;-94
2022/03/18 09:32:57;;;;;;;23.98;12.57;;;;;;;13.89;42.71;99833.72;5078053;28;20041;-94
2022/03/18 09:35:27;;;;;;;21.90;12.10;;;;;;;14.01;42.99;99816.50;5078018;28;20052;-94
2022/03/18 09:37:53;;;;;;;25.30;15.68;;;;;;;13.98;44.46;99820.13;5077462;28;20070;-94
2022/03/18 09:40:19;;;;;;;21.40;11.73;;;;;;;13.87;42.04;99819.50;5077067;28;20041;-94
2022/03/18 09:42:56;;;;;;;22.45;12.52;;;;;;;13.95;42.17;99844.28;5076978;28;20055;-96
2022/03/18 09:45:24;;;;;;;21.30;12.43;;;;;;;14.17;41.81;99826.78;5077312;28;20044;-95
2022/03/18 09:47:51;;;;;;;24.58;12.80;;;;;;;14.15;43.01;99831.28;5076084;28;20064;-95
2022/03/18 09:50:18;;;;;;;22.50;14.13;;;;;;;13.52;45.48;99840.78;5078276;28;20051;-95
2022/03/18 09:52:45;;;;;;;21.85;12.15;;;;;;;13.08;47.32;99828.34;5077931;28;20055;-94
2022/03/18 09:55:11;;;;;;;22.67;13.45;;;;;;;13.14;47.50;99841.53;5079414;28;20037;-94
2022/03/18 09:57:37;;;;;;;22.02;13.25;;;;;;;13.48;46.60;99822.19;5081511;28;20502;-94
2022/03/18 10:00:03;;;;;;;22.77;13.93;;;;;;;13.30;46.96;99823.47;5080118;28;20123;-92
2022/03/18 10:02:30;;;;;;;21.25;12.85;;;;;;;13.33;46.76;99832.28;5080296;28;20036;-94
2022/03/18 10:04:58;;;;;;;22.60;12.50;;;;;;;13.83;45.77;99823.16;5080730;28;20059;-96
2022/03/18 10:07:25;;;;;;;23.88;12.75;;;;;;;13.79;45.63;99837.53;5080810;28;20059;-96
2022/03/18 10:10:03;;;;;;;20.58;12.30;;;;;;;14.45;44.06;99849.31;5080575;28;20049;-94
2022/03/18 10:12:30;;;;;;;22.88;13.30;;;;;;;14.82;43.86;99821.59;5083242;28;20048;-94
2022/03/18 10:15:04;;;;;;;24.85;12.93;;;;;;;14.62;44.08;99848.91;5082980;28;20045;-94
2022/03/18 10:17:38;;;;;;;23.95;13.45;;;;;;;14.49;44.44;99849.19;5092256;28;20047;-95
2022/03/18 10:20:05;;;;;;;22.98;12.73;;;;;;;14.69;43.46;99837.09;5094718;28;20139;-96
2022/03/18 10:22:31;;;;;;;23.40;12.18;;;;;;;14.83;42.08;99831.38;5080757;28;20044;-94
2022/03/18 10:24:57;;;;;;;20.83;12.77;;;;;;;14.87;42.48;99862.50;5082996;28;20112;-94
2022/03/18 10:27:25;;;;;;;20.00;11.95;;;;;;;14.78;41.75;99835.03;5080976;28;20054;-95
2022/03/18 10:29:53;;;;;;;23.30;12.15;;;;;;;14.83;40.69;99839.41;5080652;28;20075;-94
2022/03/18 10:32:21;;;;;;;21.05;12.10;;;;;;;15.05;40.24;99845.03;5082055;28;20064;-92
2022/03/18 10:42:15;;;;;;;23.08;12.48;;;;;;;14.74;41.45;99856.59;5162720;27;20035;-93
2022/03/18 10:44:47;;;;;;;21.58;12.02;;;;;;;15.02;41.02;99846.00;5166235;27;20043;-95
2022/03/18 10:47:30;;;;;;;21.85;12.20;;;;;;;14.85;42.46;99867.88;5163647;27;20043;-95
2022/03/18 10:50:19;;;;;;;24.20;12.68;;;;;;;14.52;42.97;99864.28;5165170;27;20043;-95
2022/03/18 10:53:03;;;;;;;26.00;13.05;;;;;;;14.37;42.44;99860.19;5183276;27;20057;-96
2022/03/18 10:55:33;;;;;;;22.20;13.15;;;;;;;14.49;42.78;99891.13;5186218;27;20042;-95
2022/03/18 10:58:03;;;;;;;20.08;12.18;;;;;;;14.44;41.36;99872.50;5174856;27;20134;-95
2022/03/18 11:00:34;;;;;;;22.77;12.75;;;;;;;14.01;42.08;99880.69;5156790;27;20038;-92
2022/03/18 11:03:02;;;;;;;23.27;12.32;;;;;;;14.16;42.09;99886.56;5183309;27;20046;-94
2022/03/18 11:05:34;;;;;;;22.17;12.85;;;;;;;13.81;42.46;99891.84;5163619;27;20035;-93
2022/03/18 11:08:02;;;;;;;24.10;13.60;;;;;;;13.27;43.14;99872.47;5166787;27;20050;-93
2022/03/18 11:13:39;;;;;;;25.58;12.80;;;;;;;13.68;42.91;99875.19;5111652;27;20366;-95
2022/03/18 11:16:07;;;;;;;27.25;14.40;;;;;;;13.49;43.82;99906.78;5079722;28;20044;-93
2022/03/18 11:18:34;;;;;;;24.13;12.85;;;;;;;13.46;43.41;99864.09;5079525;28;20075;-94
2022/03/18 11:21:03;;;;;;;27.15;13.25;;;;;;;13.41;43.76;99872.19;5079038;28;20040;-94
2022/03/18 11:23:32;;;;;;;25.63;12.73;;;;;;;13.35;43.93;99878.53;5072865;28;20041;-95
2022/03/18 11:26:00;;;;;;;27.80;14.43;;;;;;;13.23;45.03;99900.16;5080614;28;20048;-93
2022/03/18 11:28:27;;;;;;;25.90;13.83;;;;;;;12.88;45.50;99888.34;5076747;28;20044;-95
2022/03/18 11:31:03;;;;;;;25.80;13.85;;;;;;;13.17;45.50;99900.25;5062045;28;20042;-96
2022/03/18 11:33:33;;;;;;;25.83;13.85;;;;;;;13.04;45.25;99869.38;5076181;28;20044;-93
2022/03/18 11:36:10;;;;;;;25.10;13.50;;;;;;;13.06;45.66;99900.47;5058385;28;20037;-96
2022/03/18 11:38:55;;;;;;;25.45;14.00;;;;;;;13.01;45.37;99875.66;5060897;28;20127;-93
2022/03/18 11:41:25;;;;;;;28.25;14.02;;;;;;;12.95;46.11;99878.44;5072122;28;20067;-95
2022/03/18 11:43:55;;;;;;;27.13;14.38;;;;;;;12.95;45.48;99857.94;5061344;28;20049;-94
2022/03/18 11:46:25;;;;;;;27.00;15.38;;;;;;;12.52;47.00;99861.41;5057700;28;20053;-96
2022/03/18 11:48:57;;;;;;;27.67;15.45;;;;;;;12.82;46.56;99859.09;5060948;28;20065;-95